createdAt,value
2018-04-08T00:02:00.990Z,10.70
2018-04-08T00:04:26.810Z,9.43
2018-04-08T00:06:52.643Z,10.07
2018-04-08T00:09:18.510Z,9.83
2018-04-08T00:11:44.347Z,9.90
2018-04-08T00:14:10.292Z,11.13
2018-04-08T00:16:36.139Z,10.47
2018-04-08T00:19:01.998Z,11.13
2018-04-08T00:21:27.823Z,9.30
2018-04-08T00:23:53.786Z,9.90
2018-04-08T00:26:19.703Z,9.50
2018-04-08T00:28:45.571Z,10.40
2018-04-08T00:31:11.446Z,10.90
2018-04-08T00:33:37.303Z,10.07
2018-04-08T00:36:03.181Z,10.87
2018-04-08T00:38:29.053Z,10.60
2018-04-08T00:40:54.922Z,10.03
2018-04-08T00:43:20.902Z,9.63
2018-04-08T00:45:46.773Z,11.33
2018-04-08T00:48:12.634Z,11.30
2018-04-08T00:50:38.514Z,10.80
2018-04-08T00:53:04.427Z,10.83
2018-04-08T00:55:30.301Z,10.13
2018-04-08T00:57:56.248Z,10.37
2018-04-08T01:00:22.145Z,10.20
2018-04-08T01:02:48.022Z,10.20
2018-04-08T01:05:13.897Z,11.37
2018-04-08T01:07:39.773Z,11.13
2018-04-08T01:10:05.631Z,12.00
2018-04-08T01:12:31.492Z,10.83
2018-04-08T01:14:57.350Z,11.00
2018-04-08T01:17:23.259Z,11.30
2018-04-08T01:19:49.107Z,11.37
2018-04-08T01:22:14.928Z,12.83
2018-04-08T01:24:40.772Z,12.77
2018-04-08T01:27:06.578Z,12.97
2018-04-08T01:29:32.528Z,13.43
2018-04-08T01:31:58.370Z,13.40
2018-04-08T01:34:24.209Z,13.13
2018-04-08T01:36:50.050Z,12.73
2018-04-08T01:39:15.910Z,13.00
2018-04-08T01:41:41.807Z,12.33
2018-04-08T01:44:07.663Z,12.70
2018-04-08T01:46:33.511Z,12.20
2018-04-08T01:48:59.406Z,12.40
2018-04-08T01:51:25.286Z,12.00
2018-04-08T01:53:51.182Z,14.40
2018-04-08T01:56:17.025Z,13.57
2018-04-08T01:58:42.858Z,13.47
2018-04-08T02:01:08.738Z,13.13
2018-04-08T02:03:34.601Z,14.53
2018-04-08T02:06:00.435Z,14.70
2018-04-08T02:08:26.279Z,13.20
2018-04-08T02:10:52.115Z,11.70
2018-04-08T02:13:17.966Z,13.20
2018-04-08T02:15:43.838Z,13.93
2018-04-08T02:18:09.686Z,12.13
2018-04-08T02:20:35.506Z,13.33
2018-04-08T02:23:01.346Z,14.60
2018-04-08T02:25:27.209Z,15.27
2018-04-08T02:27:53.076Z,14.43
2018-04-08T02:30:18.947Z,14.07
2018-04-08T02:32:44.826Z,13.63
2018-04-08T02:35:10.644Z,15.47
2018-04-08T02:37:36.512Z,16.40
2018-04-08T02:40:02.794Z,16.73
2018-04-08T02:42:28.664Z,16.43
2018-04-08T02:44:54.523Z,15.20
2018-04-08T02:47:20.367Z,15.47
2018-04-08T02:49:46.220Z,17.27
2018-04-08T02:52:12.133Z,15.20
2018-04-08T02:54:38.013Z,16.07
2018-04-08T02:57:03.902Z,16.83
2018-04-08T02:59:29.739Z,16.10
2018-04-08T03:01:55.583Z,15.47
2018-04-08T03:04:21.474Z,16.03
2018-04-08T03:06:47.327Z,16.47
2018-04-08T03:09:13.200Z,15.57
2018-04-08T03:11:39.039Z,18.93
2018-04-08T03:14:04.937Z,18.83
2018-04-08T03:16:30.821Z,18.60
2018-04-08T03:18:56.710Z,19.23
2018-04-08T03:21:22.546Z,18.77
2018-04-08T03:23:48.394Z,19.57
2018-04-08T03:26:14.255Z,16.83
2018-04-08T03:28:40.145Z,17.33
2018-04-08T03:31:06.098Z,19.50
2018-04-08T03:33:31.963Z,19.87
2018-04-08T03:35:57.798Z,18.10
2018-04-08T03:38:23.649Z,22.73
2018-04-08T03:40:49.506Z,18.90
2018-04-08T03:43:15.382Z,19.30
2018-04-08T03:45:41.281Z,18.13
2018-04-08T03:48:07.157Z,19.13
2018-04-08T03:50:33.029Z,20.73
2018-04-08T03:52:58.918Z,20.57
2018-04-08T03:55:24.739Z,19.93
2018-04-08T03:57:50.585Z,18.10
2018-04-08T04:00:16.462Z,19.53
2018-04-08T04:02:42.335Z,18.90
2018-04-08T04:05:08.207Z,19.80
2018-04-08T04:07:34.065Z,20.60
2018-04-08T04:09:59.929Z,19.20
2018-04-08T04:12:25.806Z,21.23
2018-04-08T04:14:51.694Z,19.60
2018-04-08T04:17:17.543Z,18.33
2018-04-08T04:19:55.822Z,19.00
2018-04-08T04:22:33.995Z,18.77
2018-04-08T04:25:18.154Z,18.60
2018-04-08T04:27:44.656Z,19.00
2018-04-08T04:30:10.504Z,19.07
2018-04-08T04:32:36.389Z,17.70
2018-04-08T04:35:02.250Z,18.93
2018-04-08T04:37:28.115Z,19.67
2018-04-08T04:39:53.973Z,18.20
2018-04-08T04:42:19.846Z,16.70
2018-04-08T04:44:45.701Z,17.40
2018-04-08T04:47:11.604Z,18.50
2018-04-08T04:49:37.475Z,17.87
2018-04-08T04:52:03.345Z,18.67
2018-04-08T04:54:29.183Z,19.00
2018-04-08T04:56:55.207Z,18.90
2018-04-08T04:59:21.067Z,16.87
2018-04-08T05:01:46.926Z,17.87
2018-04-08T05:04:12.790Z,18.63
2018-04-08T05:06:38.606Z,19.40
2018-04-08T05:09:04.459Z,19.73
2018-04-08T05:11:30.286Z,16.93
2018-04-08T05:13:56.190Z,19.77
2018-04-08T05:16:22.046Z,18.90
2018-04-08T05:18:47.905Z,20.27
2018-04-08T05:21:13.800Z,18.90
2018-04-08T05:23:39.636Z,21.63
2018-04-08T05:26:05.504Z,21.40
2018-04-08T05:28:31.355Z,19.30
2018-04-08T05:30:57.213Z,21.67
2018-04-08T05:33:23.101Z,19.77
2018-04-08T05:35:48.977Z,21.03
2018-04-08T05:38:14.842Z,22.03
2018-04-08T05:40:40.741Z,22.57
2018-04-08T05:43:06.658Z,21.80
2018-04-08T05:45:32.515Z,21.93
2018-04-08T05:47:58.385Z,22.53
2018-04-08T05:50:24.215Z,22.10
2018-04-08T05:52:50.118Z,23.53
2018-04-08T05:55:15.970Z,21.43
2018-04-08T05:57:41.871Z,19.10
2018-04-08T06:00:07.746Z,21.47
2018-04-08T06:02:33.655Z,21.10
2018-04-08T06:04:59.542Z,19.87
2018-04-08T06:07:25.398Z,19.50
2018-04-08T06:09:51.295Z,19.90
2018-04-08T06:12:17.175Z,21.87
2018-04-08T06:14:43.043Z,20.70
2018-04-08T06:17:08.949Z,19.93
2018-04-08T06:19:34.813Z,19.67
2018-04-08T06:22:00.661Z,19.40
2018-04-08T06:24:26.592Z,19.00
2018-04-08T06:26:52.442Z,21.00
2018-04-08T06:29:18.305Z,19.53
2018-04-08T06:31:44.214Z,20.53
2018-04-08T06:34:10.104Z,19.17
2018-04-08T06:36:35.987Z,21.17
2018-04-08T06:39:01.933Z,17.13
2018-04-08T06:41:27.837Z,22.30
2018-04-08T06:43:53.730Z,20.60
2018-04-08T06:46:19.608Z,19.27
2018-04-08T06:48:45.486Z,20.40
2018-04-08T06:51:11.413Z,19.47
2018-04-08T06:53:37.261Z,18.40
2018-04-08T06:56:03.119Z,20.83
2018-04-08T06:58:28.991Z,17.83
2018-04-08T07:00:54.834Z,15.77
2018-04-08T07:03:20.748Z,19.20
2018-04-08T07:05:46.603Z,19.03
2018-04-08T07:08:12.433Z,19.70
2018-04-08T07:10:38.281Z,19.43
2018-04-08T07:13:04.119Z,18.13
2018-04-08T07:15:29.954Z,17.33
2018-04-08T07:17:55.831Z,17.97
2018-04-08T07:20:21.679Z,17.77
2018-04-08T07:22:47.534Z,18.33
2018-04-08T07:25:13.414Z,19.40
2018-04-08T07:27:39.278Z,17.07
2018-04-08T07:30:06.405Z,17.73
2018-04-08T07:32:32.259Z,17.20
2018-04-08T07:34:58.134Z,18.00
2018-04-08T07:37:24.008Z,18.33
2018-04-08T07:39:49.882Z,17.83
2018-04-08T07:42:15.775Z,18.30
2018-04-08T07:44:41.630Z,17.67
2018-04-08T07:47:07.530Z,18.37
2018-04-08T07:49:33.438Z,18.10
2018-04-08T07:51:59.301Z,19.50
2018-04-08T07:54:25.213Z,17.97
2018-04-08T07:56:52.078Z,16.77
2018-04-08T07:59:17.938Z,16.87
2018-04-08T08:01:43.813Z,17.33
2018-04-08T08:04:09.638Z,16.37
2018-04-08T08:06:35.464Z,17.90
2018-04-08T08:09:01.379Z,15.77
2018-04-08T08:11:27.207Z,16.73
2018-04-08T08:13:53.058Z,16.60
2018-04-08T08:16:18.907Z,18.40
2018-04-08T08:18:44.739Z,17.10
2018-04-08T08:21:10.633Z,15.63
2018-04-08T08:23:36.527Z,16.57
2018-04-08T08:26:02.399Z,17.40
2018-04-08T08:28:28.245Z,17.90
2018-04-08T08:30:54.109Z,16.00
2018-04-08T08:33:19.972Z,15.20
2018-04-08T08:35:45.856Z,18.07
2018-04-08T08:38:11.842Z,15.87
2018-04-08T08:40:37.666Z,18.33
2018-04-08T08:43:03.538Z,17.57
2018-04-08T08:45:29.390Z,15.53
2018-04-08T08:47:55.246Z,16.67
2018-04-08T08:50:21.087Z,17.07
2018-04-08T08:52:46.946Z,18.37
2018-04-08T08:55:12.839Z,14.63
2018-04-08T08:57:38.907Z,16.70
2018-04-08T09:00:04.891Z,17.57
2018-04-08T09:02:30.766Z,17.67
2018-04-08T09:04:56.658Z,16.33
2018-04-08T09:07:22.538Z,15.50
2018-04-08T09:09:48.387Z,17.07
2018-04-08T09:12:14.238Z,15.83
2018-04-08T09:14:40.241Z,16.77
2018-04-08T09:17:06.156Z,17.00
2018-04-08T09:19:32.032Z,16.07
2018-04-08T09:22:03.946Z,15.77
2018-04-08T09:27:26.083Z,16.20
2018-04-08T09:29:52.114Z,14.77
2018-04-08T09:32:18.065Z,16.50
2018-04-08T09:34:44.015Z,15.10
2018-04-08T09:37:09.944Z,16.37
2018-04-08T09:39:35.910Z,16.10
2018-04-08T09:42:01.876Z,13.93
2018-04-08T09:44:27.836Z,15.97
2018-04-08T09:46:53.785Z,15.57
2018-04-08T09:49:19.779Z,15.70
2018-04-08T09:51:45.725Z,15.40
2018-04-08T09:54:11.755Z,15.93
2018-04-08T09:56:37.721Z,16.63
2018-04-08T09:59:04.062Z,17.20
2018-04-08T10:01:31.880Z,17.40
2018-04-08T10:03:59.687Z,15.63
2018-04-08T10:06:25.811Z,16.70
2018-04-08T10:08:51.901Z,15.63
2018-04-08T10:11:18.059Z,15.93
2018-04-08T10:13:44.139Z,14.03
2018-04-08T10:16:10.649Z,15.73
2018-04-08T10:18:36.956Z,15.70
2018-04-08T10:21:03.012Z,13.93
2018-04-08T10:23:29.134Z,14.80
2018-04-08T10:25:55.228Z,15.20
2018-04-08T10:28:21.236Z,15.77
2018-04-08T10:30:47.254Z,16.23
2018-04-08T10:33:13.307Z,17.20
2018-04-08T10:35:39.362Z,15.70
2018-04-08T10:38:05.454Z,16.43
2018-04-08T10:40:31.464Z,16.30
2018-04-08T10:42:57.545Z,15.23
2018-04-08T10:45:23.586Z,14.50
2018-04-08T10:47:49.656Z,15.60
2018-04-08T10:50:15.684Z,18.07
2018-04-08T10:52:41.729Z,15.60
2018-04-08T10:55:07.752Z,15.53
2018-04-08T10:57:33.815Z,14.83
2018-04-08T10:59:59.868Z,15.30
2018-04-08T11:02:25.968Z,15.50
2018-04-08T11:04:52.015Z,15.30
2018-04-08T11:07:18.095Z,15.63
2018-04-08T11:09:44.214Z,14.47
2018-04-08T11:12:10.317Z,15.80
2018-04-08T11:14:36.389Z,14.20
2018-04-08T11:17:02.420Z,14.90
2018-04-08T11:19:28.515Z,15.70
2018-04-08T11:21:54.518Z,14.00
2018-04-08T11:24:20.538Z,15.00
2018-04-08T11:26:46.576Z,14.37
2018-04-08T11:29:12.636Z,15.20
2018-04-08T11:31:38.680Z,15.17
2018-04-08T11:34:04.740Z,14.80
2018-04-08T11:36:30.812Z,16.10
2018-04-08T11:38:56.902Z,14.50
2018-04-08T11:41:22.980Z,15.00
2018-04-08T11:43:49.106Z,15.33
2018-04-08T11:46:15.139Z,15.77
2018-04-08T11:48:41.121Z,14.87
2018-04-08T11:51:07.189Z,14.20
2018-04-08T11:53:33.222Z,14.80
2018-04-08T11:55:59.346Z,14.50
2018-04-08T11:58:25.363Z,15.87
2018-04-08T12:00:51.485Z,14.60
2018-04-08T12:03:17.500Z,14.07
2018-04-08T12:05:43.842Z,14.23
2018-04-08T12:08:09.987Z,14.50
2018-04-08T12:10:36.073Z,13.30
2018-04-08T12:13:02.204Z,13.10
2018-04-08T12:15:28.265Z,14.80
2018-04-08T12:17:54.386Z,14.67
2018-04-08T12:20:20.444Z,14.93
2018-04-08T12:22:46.493Z,14.03
2018-04-08T12:25:12.537Z,14.40
2018-04-08T12:27:38.676Z,13.93
2018-04-08T12:30:05.057Z,14.50
2018-04-08T12:32:31.198Z,14.00
2018-04-08T12:34:57.341Z,13.10
2018-04-08T12:37:23.379Z,15.33
2018-04-08T12:39:49.459Z,13.97
2018-04-08T12:42:15.579Z,14.07
2018-04-08T12:44:41.774Z,12.10
2018-04-08T12:47:07.879Z,13.23
2018-04-08T12:49:34.011Z,13.43
2018-04-08T12:52:00.185Z,15.10
2018-04-08T12:54:26.423Z,13.40
2018-04-08T12:56:52.706Z,11.70
2018-04-08T12:59:18.750Z,13.40
2018-04-08T13:01:44.933Z,13.30
2018-04-08T13:04:11.069Z,12.33
2018-04-08T13:06:39.992Z,11.80
2018-04-08T13:09:07.078Z,13.37
2018-04-08T13:11:33.169Z,12.90
2018-04-08T13:13:59.256Z,12.83
2018-04-08T13:16:25.413Z,13.20
2018-04-08T13:18:51.526Z,13.10
2018-04-08T13:21:17.659Z,13.20
2018-04-08T13:23:43.842Z,14.03
2018-04-08T13:26:09.968Z,12.70
2018-04-08T13:28:36.024Z,12.50
2018-04-08T13:31:02.085Z,12.70
2018-04-08T13:33:28.205Z,12.93
2018-04-08T13:35:54.328Z,15.10
2018-04-08T13:38:20.936Z,12.30
2018-04-08T13:40:47.097Z,12.23
2018-04-08T13:43:13.168Z,13.70
2018-04-08T13:45:39.271Z,10.90
2018-04-08T13:48:05.317Z,11.93
2018-04-08T13:50:31.357Z,12.80
2018-04-08T13:52:57.449Z,12.23
2018-04-08T13:55:23.518Z,11.47
2018-04-08T13:57:49.658Z,10.37
2018-04-08T14:00:15.712Z,12.07
2018-04-08T14:02:41.782Z,11.47
2018-04-08T14:05:07.829Z,12.53
2018-04-08T14:07:33.972Z,11.20
2018-04-08T14:10:00.091Z,10.87
2018-04-08T14:12:26.884Z,11.00
2018-04-08T14:14:52.899Z,11.77
2018-04-08T14:17:18.930Z,11.07
2018-04-08T14:19:44.990Z,10.77
2018-04-08T14:22:11.062Z,16.30
2018-04-08T14:24:37.257Z,13.07
2018-04-08T14:27:03.415Z,10.83
2018-04-08T14:29:29.626Z,11.00
2018-04-08T14:31:55.763Z,11.70
2018-04-08T14:34:21.852Z,9.40
2018-04-08T14:36:47.860Z,9.97
2018-04-08T14:39:13.844Z,10.97
2018-04-08T14:41:40.880Z,10.60
2018-04-08T14:44:06.958Z,10.20
2018-04-08T14:46:33.002Z,10.47
2018-04-08T14:48:58.995Z,11.00
2018-04-08T14:51:25.005Z,10.87
2018-04-08T14:53:50.959Z,11.93
2018-04-08T14:56:16.915Z,12.30
2018-04-08T14:58:42.849Z,13.00
2018-04-08T15:01:08.825Z,12.10
2018-04-08T15:03:34.775Z,13.57
2018-04-08T15:06:00.785Z,11.77
2018-04-08T15:08:26.820Z,11.50
2018-04-08T15:10:52.838Z,11.00
2018-04-08T15:13:18.882Z,11.90
2018-04-08T15:15:44.961Z,12.87
2018-04-08T15:18:11.069Z,12.30
2018-04-08T15:20:37.113Z,12.70
2018-04-08T15:23:03.175Z,11.80
2018-04-08T15:25:29.182Z,12.53
2018-04-08T15:27:55.210Z,12.60
2018-04-08T15:30:22.262Z,12.50
2018-04-08T15:32:48.377Z,12.47
2018-04-08T15:35:14.415Z,12.33
2018-04-08T15:37:40.473Z,12.87
2018-04-08T15:40:06.532Z,12.60
2018-04-08T15:42:32.674Z,11.70
2018-04-08T15:44:58.655Z,13.50
2018-04-08T15:47:24.683Z,11.90
2018-04-08T15:49:50.782Z,11.80
2018-04-08T15:52:16.824Z,12.70
2018-04-08T15:54:42.905Z,11.90
2018-04-08T15:57:08.910Z,11.80
2018-04-08T15:59:34.998Z,11.77
2018-04-08T16:02:00.989Z,11.90
2018-04-08T16:04:26.958Z,12.00
2018-04-08T16:06:52.999Z,10.87
2018-04-08T16:09:19.069Z,11.37
2018-04-08T16:11:45.086Z,13.13
2018-04-08T16:14:11.269Z,12.50
2018-04-08T16:16:37.440Z,12.67
2018-04-08T16:19:03.617Z,11.77
2018-04-08T16:21:29.674Z,12.53
2018-04-08T16:23:55.701Z,12.50
2018-04-08T16:26:21.750Z,14.57
2018-04-08T16:28:47.800Z,11.80
2018-04-08T16:31:13.865Z,12.43
2018-04-08T16:33:40.026Z,13.00
2018-04-08T16:36:06.211Z,12.93
2018-04-08T16:38:32.195Z,11.77
2018-04-08T16:40:58.272Z,12.80
2018-04-08T16:43:24.334Z,11.67
2018-04-08T16:45:50.374Z,11.63
2018-04-08T16:48:16.381Z,12.10
2018-04-08T16:50:42.505Z,12.70
2018-04-08T16:53:08.505Z,13.30
2018-04-08T16:55:34.693Z,12.40
2018-04-08T16:58:00.810Z,11.97
2018-04-08T17:00:26.771Z,12.80
2018-04-08T17:02:52.747Z,12.00
2018-04-08T17:05:18.687Z,13.40
2018-04-08T17:07:45.118Z,12.87
2018-04-08T17:10:11.188Z,13.10
2018-04-08T17:12:37.385Z,12.20
2018-04-08T17:15:03.939Z,12.63
2018-04-08T17:17:30.110Z,11.93
2018-04-08T17:19:56.193Z,13.10
2018-04-08T17:22:22.318Z,12.10
2018-04-08T17:24:48.455Z,12.77
2018-04-08T17:27:14.712Z,11.53
2018-04-08T17:29:41.666Z,11.57
2018-04-08T17:32:07.677Z,12.27
2018-04-08T17:34:33.778Z,10.73
2018-04-08T17:36:59.804Z,11.63
2018-04-08T17:39:25.786Z,10.50
2018-04-08T17:41:51.770Z,11.60
2018-04-08T17:44:17.753Z,10.97
2018-04-08T17:46:43.705Z,12.30
2018-04-08T17:49:09.644Z,12.80
2018-04-08T17:51:35.630Z,10.47
2018-04-08T17:54:01.689Z,12.13
2018-04-08T17:56:27.804Z,11.80
2018-04-08T17:58:53.776Z,11.70
2018-04-08T18:01:19.885Z,14.53
2018-04-08T18:03:45.856Z,12.37
2018-04-08T18:06:11.848Z,12.87
2018-04-08T18:08:37.826Z,12.00
2018-04-08T18:11:03.748Z,12.80
2018-04-08T18:13:29.812Z,14.17
2018-04-08T18:15:55.767Z,13.07
2018-04-08T18:18:21.708Z,13.50
2018-04-08T18:20:47.703Z,12.40
2018-04-08T18:23:13.630Z,13.13
2018-04-08T18:25:39.636Z,14.27
2018-04-08T18:28:05.681Z,13.43
2018-04-08T18:30:31.719Z,12.17
2018-04-08T18:32:57.727Z,14.27
2018-04-08T18:35:23.758Z,12.73
2018-04-08T18:37:49.730Z,11.70
2018-04-08T18:40:15.700Z,13.67
2018-04-08T18:42:41.726Z,13.50
2018-04-08T18:45:07.667Z,14.77
2018-04-08T18:47:33.698Z,14.93
2018-04-08T18:49:59.659Z,14.43
2018-04-08T18:52:25.644Z,14.37
2018-04-08T18:54:51.677Z,13.27
2018-04-08T18:57:18.592Z,13.77
2018-04-08T18:59:44.575Z,12.27
2018-04-08T19:02:10.603Z,14.70
2018-04-08T19:04:37.288Z,15.43
2018-04-08T19:07:03.304Z,17.30
2018-04-08T19:09:29.246Z,17.70
2018-04-08T19:11:55.305Z,22.60
2018-04-08T19:14:21.329Z,21.13
2018-04-08T19:16:47.325Z,20.60
2018-04-08T19:19:13.339Z,18.57
2018-04-08T19:21:39.308Z,17.57
2018-04-08T19:27:00.155Z,18.00
2018-04-08T19:29:26.047Z,17.43
2018-04-08T19:31:51.915Z,19.40
2018-04-08T19:34:17.783Z,17.13
2018-04-08T19:36:43.775Z,17.47
2018-04-08T19:39:09.655Z,17.93
2018-04-08T19:41:35.497Z,18.03
2018-04-08T19:44:01.393Z,23.70
2018-04-08T19:46:27.244Z,19.77
2018-04-08T19:48:53.143Z,19.57
2018-04-08T19:51:19.055Z,17.57
2018-04-08T19:53:44.925Z,17.10
2018-04-08T19:56:10.831Z,16.63
2018-04-08T19:58:36.744Z,14.47
2018-04-08T20:01:02.622Z,14.20
2018-04-08T20:03:28.509Z,15.27
2018-04-08T20:05:54.383Z,15.93
2018-04-08T20:08:20.234Z,15.27
2018-04-08T20:10:46.152Z,16.67
2018-04-08T20:13:12.036Z,15.73
2018-04-08T20:15:37.895Z,13.60
2018-04-08T20:18:03.778Z,15.03
2018-04-08T20:20:29.666Z,14.90
2018-04-08T20:22:55.540Z,14.93
2018-04-08T20:25:21.358Z,14.33
2018-04-08T20:27:47.222Z,13.10
2018-04-08T20:30:13.082Z,14.20
2018-04-08T20:32:38.948Z,14.57
2018-04-08T20:35:04.894Z,14.73
2018-04-08T20:37:30.747Z,15.73
2018-04-08T20:39:56.627Z,15.90
2018-04-08T20:42:22.501Z,19.80
2018-04-08T20:44:48.446Z,21.60
2018-04-08T20:47:14.312Z,19.40
2018-04-08T20:49:40.197Z,20.43
2018-04-08T20:52:06.086Z,20.27
2018-04-08T20:54:31.965Z,19.63
2018-04-08T20:56:57.826Z,18.90
2018-04-08T20:59:23.682Z,18.13
2018-04-08T21:01:49.639Z,19.50
2018-04-08T21:04:15.632Z,20.83
2018-04-08T21:06:41.510Z,18.93
2018-04-08T21:09:07.371Z,19.27
2018-04-08T21:11:33.247Z,20.00
2018-04-08T21:13:59.120Z,19.10
2018-04-08T21:16:24.968Z,18.63
2018-04-08T21:18:50.831Z,21.00
2018-04-08T21:21:16.678Z,19.07
2018-04-08T21:23:42.514Z,17.70
2018-04-08T21:26:08.374Z,15.13
2018-04-08T21:28:34.239Z,15.23
2018-04-08T21:31:00.099Z,13.87
2018-04-08T21:33:26.002Z,13.90
2018-04-08T21:35:51.838Z,13.07
2018-04-08T21:38:17.687Z,15.80
2018-04-08T21:40:43.551Z,13.80
2018-04-08T21:43:09.410Z,14.77
2018-04-08T21:45:35.259Z,12.97
2018-04-08T21:48:01.140Z,12.93
2018-04-08T21:50:27.010Z,13.10
2018-04-08T21:52:52.903Z,13.07
2018-04-08T21:55:18.762Z,13.23
2018-04-08T21:57:44.604Z,14.13
2018-04-08T22:00:10.478Z,14.73
2018-04-08T22:02:36.339Z,15.80
2018-04-08T22:05:02.194Z,15.07
2018-04-08T22:07:28.097Z,15.53
2018-04-08T22:09:53.887Z,17.57
2018-04-08T22:12:19.732Z,14.80
2018-04-08T22:14:45.587Z,15.70
2018-04-08T22:17:11.429Z,13.87
2018-04-08T22:19:37.294Z,15.93
2018-04-08T22:22:03.135Z,15.50
2018-04-08T22:24:29.022Z,14.43
2018-04-08T22:26:54.857Z,14.50
2018-04-08T22:29:20.743Z,14.77
2018-04-08T22:31:46.635Z,14.20
2018-04-08T22:34:12.507Z,13.00
2018-04-08T22:36:38.382Z,13.33
2018-04-08T22:39:05.237Z,13.47
2018-04-08T22:41:31.114Z,14.00
2018-04-08T22:43:56.975Z,14.23
2018-04-08T22:46:22.803Z,14.93
2018-04-08T22:48:48.630Z,13.87
2018-04-08T22:51:14.494Z,13.43
2018-04-08T22:53:40.340Z,13.80
2018-04-08T22:56:06.203Z,12.77
2018-04-08T22:58:32.043Z,12.90
2018-04-08T23:00:57.891Z,14.43
2018-04-08T23:03:23.707Z,15.40
2018-04-08T23:05:49.550Z,14.53
2018-04-08T23:08:15.364Z,16.33
2018-04-08T23:10:41.229Z,13.40
2018-04-08T23:13:07.054Z,15.67
2018-04-08T23:15:32.914Z,16.50
2018-04-08T23:17:58.792Z,15.47
2018-04-08T23:20:24.647Z,17.30
2018-04-08T23:22:50.485Z,15.20
2018-04-08T23:25:16.330Z,17.30
2018-04-08T23:27:42.185Z,15.17
2018-04-08T23:30:08.031Z,14.87
2018-04-08T23:32:33.887Z,17.87
2018-04-08T23:34:59.741Z,16.67
2018-04-08T23:37:25.610Z,17.70
2018-04-08T23:39:51.459Z,17.60
2018-04-08T23:42:17.313Z,15.73
2018-04-08T23:44:43.235Z,15.27
2018-04-08T23:47:09.081Z,16.00
2018-04-08T23:49:34.946Z,14.10
2018-04-08T23:52:00.761Z,15.57
2018-04-08T23:54:26.618Z,15.40
2018-04-08T23:56:52.466Z,16.30
2018-04-08T23:59:18.326Z,15.63
